sensor_id;sensor_type;location;lat;lon;timestamp;P1;durP1;ratioP1;P2;durP2;ratioP2
11496;SDS011;5805;51.542;7.230;2023-05-07T00:02:14;11.15;;;10.13;;
11496;SDS011;5805;51.542;7.230;2023-05-07T00:04:40;10.23;;;9.20;;
11496;SDS011;5805;51.542;7.230;2023-05-07T00:07:05;11.35;;;10.25;;
11496;SDS011;5805;51.542;7.230;2023-05-07T00:09:31;11.80;;;10.63;;
11496;SDS011;5805;51.542;7.230;2023-05-07T00:11:58;10.90;;;9.75;;
11496;SDS011;5805;51.542;7.230;2023-05-07T00:14:24;10.40;;;9.40;;
11496;SDS011;5805;51.542;7.230;2023-05-07T00:16:49;10.60;;;9.65;;
11496;SDS011;5805;51.542;7.230;2023-05-07T00:19:15;13.30;;;10.15;;
11496;SDS011;5805;51.542;7.230;2023-05-07T00:21:41;10.20;;;9.30;;
11496;SDS011;5805;51.542;7.230;2023-05-07T00:24:06;11.85;;;10.63;;
11496;SDS011;5805;51.542;7.230;2023-05-07T00:26:32;12.50;;;10.35;;
11496;SDS011;5805;51.542;7.230;2023-05-07T00:28:59;17.33;;;10.85;;
11496;SDS011;5805;51.542;7.230;2023-05-07T00:31:25;11.43;;;10.02;;
11496;SDS011;5805;51.542;7.230;2023-05-07T00:33:50;13.00;;;11.70;;
11496;SDS011;5805;51.542;7.230;2023-05-07T00:36:16;12.43;;;11.25;;
11496;SDS011;5805;51.542;7.230;2023-05-07T00:38:42;12.93;;;11.73;;
11496;SDS011;5805;51.542;7.230;2023-05-07T00:41:07;13.05;;;11.73;;
11496;SDS011;5805;51.542;7.230;2023-05-07T00:43:33;13.35;;;12.05;;
11496;SDS011;5805;51.542;7.230;2023-05-07T00:46:00;13.00;;;11.90;;
11496;SDS011;5805;51.542;7.230;2023-05-07T00:48:26;12.70;;;11.13;;
11496;SDS011;5805;51.542;7.230;2023-05-07T00:50:52;13.50;;;12.27;;
11496;SDS011;5805;51.542;7.230;2023-05-07T00:53:18;18.90;;;13.07;;
11496;SDS011;5805;51.542;7.230;2023-05-07T00:55:44;13.40;;;12.10;;
11496;SDS011;5805;51.542;7.230;2023-05-07T00:58:10;14.68;;;11.93;;
11496;SDS011;5805;51.542;7.230;2023-05-07T01:00:35;12.77;;;11.55;;
11496;SDS011;5805;51.542;7.230;2023-05-07T01:03:02;13.43;;;12.13;;
11496;SDS011;5805;51.542;7.230;2023-05-07T01:05:29;15.27;;;12.77;;
11496;SDS011;5805;51.542;7.230;2023-05-07T01:07:55;13.70;;;12.05;;
11496;SDS011;5805;51.542;7.230;2023-05-07T01:10:22;13.43;;;11.90;;
11496;SDS011;5805;51.542;7.230;2023-05-07T01:12:49;14.35;;;12.85;;
11496;SDS011;5805;51.542;7.230;2023-05-07T01:15:15;13.13;;;11.95;;
11496;SDS011;5805;51.542;7.230;2023-05-07T01:17:42;13.27;;;12.00;;
11496;SDS011;5805;51.542;7.230;2023-05-07T01:20:10;14.23;;;12.98;;
11496;SDS011;5805;51.542;7.230;2023-05-07T01:22:38;13.80;;;12.40;;
11496;SDS011;5805;51.542;7.230;2023-05-07T01:25:04;14.50;;;13.00;;
11496;SDS011;5805;51.542;7.230;2023-05-07T01:27:31;14.18;;;12.77;;
11496;SDS011;5805;51.542;7.230;2023-05-07T01:29:57;14.63;;;13.15;;
11496;SDS011;5805;51.542;7.230;2023-05-07T01:32:24;13.77;;;12.38;;
11496;SDS011;5805;51.542;7.230;2023-05-07T01:34:56;14.48;;;13.18;;
11496;SDS011;5805;51.542;7.230;2023-05-07T01:37:23;14.40;;;13.15;;
11496;SDS011;5805;51.542;7.230;2023-05-07T01:39:52;14.98;;;13.50;;
11496;SDS011;5805;51.542;7.230;2023-05-07T01:42:17;16.33;;;13.98;;
11496;SDS011;5805;51.542;7.230;2023-05-07T01:44:43;17.83;;;13.82;;
11496;SDS011;5805;51.542;7.230;2023-05-07T01:47:09;14.90;;;13.25;;
11496;SDS011;5805;51.542;7.230;2023-05-07T01:49:36;15.90;;;13.80;;
11496;SDS011;5805;51.542;7.230;2023-05-07T01:52:02;15.13;;;13.55;;
11496;SDS011;5805;51.542;7.230;2023-05-07T01:54:28;13.88;;;12.60;;
11496;SDS011;5805;51.542;7.230;2023-05-07T01:56:56;14.02;;;12.43;;
11496;SDS011;5805;51.542;7.230;2023-05-07T01:59:22;13.65;;;12.45;;
11496;SDS011;5805;51.542;7.230;2023-05-07T02:01:48;14.70;;;13.30;;
11496;SDS011;5805;51.542;7.230;2023-05-07T02:04:13;13.95;;;12.68;;
11496;SDS011;5805;51.542;7.230;2023-05-07T02:06:39;14.70;;;13.23;;
11496;SDS011;5805;51.542;7.230;2023-05-07T02:09:05;13.55;;;12.35;;
11496;SDS011;5805;51.542;7.230;2023-05-07T02:11:30;15.32;;;13.55;;
11496;SDS011;5805;51.542;7.230;2023-05-07T02:13:57;16.80;;;14.02;;
11496;SDS011;5805;51.542;7.230;2023-05-07T02:16:23;14.30;;;13.00;;
11496;SDS011;5805;51.542;7.230;2023-05-07T02:18:49;14.93;;;13.52;;
11496;SDS011;5805;51.542;7.230;2023-05-07T02:21:15;15.75;;;13.65;;
11496;SDS011;5805;51.542;7.230;2023-05-07T02:23:40;15.55;;;14.05;;
11496;SDS011;5805;51.542;7.230;2023-05-07T02:26:06;15.52;;;14.00;;
11496;SDS011;5805;51.542;7.230;2023-05-07T02:28:32;15.07;;;13.70;;
11496;SDS011;5805;51.542;7.230;2023-05-07T02:30:59;15.20;;;13.52;;
11496;SDS011;5805;51.542;7.230;2023-05-07T02:33:24;15.43;;;13.88;;
11496;SDS011;5805;51.542;7.230;2023-05-07T02:35:50;20.15;;;14.77;;
11496;SDS011;5805;51.542;7.230;2023-05-07T02:38:16;14.45;;;13.05;;
11496;SDS011;5805;51.542;7.230;2023-05-07T02:40:41;15.85;;;14.43;;
11496;SDS011;5805;51.542;7.230;2023-05-07T02:43:07;15.95;;;14.50;;
11496;SDS011;5805;51.542;7.230;2023-05-07T02:45:33;17.13;;;15.25;;
11496;SDS011;5805;51.542;7.230;2023-05-07T02:48:00;16.90;;;15.02;;
11496;SDS011;5805;51.542;7.230;2023-05-07T02:50:26;17.35;;;15.65;;
11496;SDS011;5805;51.542;7.230;2023-05-07T02:52:51;18.75;;;16.65;;
11496;SDS011;5805;51.542;7.230;2023-05-07T02:55:17;18.60;;;16.80;;
11496;SDS011;5805;51.542;7.230;2023-05-07T02:57:43;18.92;;;16.73;;
11496;SDS011;5805;51.542;7.230;2023-05-07T03:00:12;20.15;;;17.13;;
11496;SDS011;5805;51.542;7.230;2023-05-07T03:02:39;19.92;;;17.67;;
11496;SDS011;5805;51.542;7.230;2023-05-07T03:05:07;20.10;;;16.75;;
11496;SDS011;5805;51.542;7.230;2023-05-07T03:07:33;20.05;;;18.00;;
11496;SDS011;5805;51.542;7.230;2023-05-07T03:09:59;19.50;;;17.42;;
11496;SDS011;5805;51.542;7.230;2023-05-07T03:12:24;23.00;;;19.40;;
11496;SDS011;5805;51.542;7.230;2023-05-07T03:14:50;26.58;;;20.98;;
11496;SDS011;5805;51.542;7.230;2023-05-07T03:17:16;24.13;;;20.02;;
11496;SDS011;5805;51.542;7.230;2023-05-07T03:19:41;24.33;;;20.27;;
11496;SDS011;5805;51.542;7.230;2023-05-07T03:22:08;28.05;;;22.83;;
11496;SDS011;5805;51.542;7.230;2023-05-07T03:24:34;25.85;;;21.55;;
11496;SDS011;5805;51.542;7.230;2023-05-07T03:27:00;26.75;;;22.38;;
11496;SDS011;5805;51.542;7.230;2023-05-07T03:29:25;27.75;;;21.98;;
11496;SDS011;5805;51.542;7.230;2023-05-07T03:31:51;22.95;;;20.38;;
11496;SDS011;5805;51.542;7.230;2023-05-07T03:34:17;26.75;;;21.95;;
11496;SDS011;5805;51.542;7.230;2023-05-07T03:36:43;23.15;;;20.00;;
11496;SDS011;5805;51.542;7.230;2023-05-07T03:39:10;24.85;;;21.17;;
11496;SDS011;5805;51.542;7.230;2023-05-07T03:41:36;24.63;;;20.83;;
11496;SDS011;5805;51.542;7.230;2023-05-07T03:44:01;22.65;;;20.20;;
11496;SDS011;5805;51.542;7.230;2023-05-07T03:46:27;22.70;;;20.27;;
11496;SDS011;5805;51.542;7.230;2023-05-07T03:48:53;21.85;;;19.33;;
11496;SDS011;5805;51.542;7.230;2023-05-07T03:51:18;22.50;;;20.15;;
11496;SDS011;5805;51.542;7.230;2023-05-07T03:53:44;22.35;;;19.52;;
11496;SDS011;5805;51.542;7.230;2023-05-07T03:56:11;23.33;;;19.60;;
11496;SDS011;5805;51.542;7.230;2023-05-07T03:58:37;20.55;;;18.38;;
11496;SDS011;5805;51.542;7.230;2023-05-07T04:01:03;22.10;;;19.27;;
11496;SDS011;5805;51.542;7.230;2023-05-07T04:03:28;23.58;;;18.40;;
11496;SDS011;5805;51.542;7.230;2023-05-07T04:05:54;20.60;;;18.40;;
11496;SDS011;5805;51.542;7.230;2023-05-07T04:08:20;19.60;;;17.70;;
11496;SDS011;5805;51.542;7.230;2023-05-07T04:10:46;19.55;;;17.55;;
11496;SDS011;5805;51.542;7.230;2023-05-07T04:13:13;19.52;;;17.35;;
11496;SDS011;5805;51.542;7.230;2023-05-07T04:15:39;19.48;;;16.67;;
11496;SDS011;5805;51.542;7.230;2023-05-07T04:18:05;19.85;;;16.35;;
11496;SDS011;5805;51.542;7.230;2023-05-07T04:20:33;19.48;;;17.42;;
11496;SDS011;5805;51.542;7.230;2023-05-07T04:22:59;18.88;;;16.52;;
11496;SDS011;5805;51.542;7.230;2023-05-07T04:25:25;16.60;;;14.73;;
11496;SDS011;5805;51.542;7.230;2023-05-07T04:27:50;16.83;;;14.95;;
11496;SDS011;5805;51.542;7.230;2023-05-07T04:30:18;17.75;;;15.80;;
11496;SDS011;5805;51.542;7.230;2023-05-07T04:32:43;17.33;;;14.45;;
11496;SDS011;5805;51.542;7.230;2023-05-07T04:35:09;15.02;;;13.63;;
11496;SDS011;5805;51.542;7.230;2023-05-07T04:37:35;15.88;;;14.27;;
11496;SDS011;5805;51.542;7.230;2023-05-07T04:40:01;14.10;;;12.77;;
11496;SDS011;5805;51.542;7.230;2023-05-07T04:42:26;14.52;;;13.02;;
11496;SDS011;5805;51.542;7.230;2023-05-07T04:44:52;13.65;;;12.10;;
11496;SDS011;5805;51.542;7.230;2023-05-07T04:47:20;13.82;;;12.40;;
11496;SDS011;5805;51.542;7.230;2023-05-07T04:49:46;12.50;;;11.20;;
11496;SDS011;5805;51.542;7.230;2023-05-07T04:52:12;12.07;;;10.88;;
11496;SDS011;5805;51.542;7.230;2023-05-07T04:54:37;14.32;;;11.52;;
11496;SDS011;5805;51.542;7.230;2023-05-07T04:57:03;14.05;;;11.55;;
11496;SDS011;5805;51.542;7.230;2023-05-07T04:59:29;12.63;;;10.82;;
11496;SDS011;5805;51.542;7.230;2023-05-07T05:01:55;11.38;;;10.38;;
11496;SDS011;5805;51.542;7.230;2023-05-07T05:04:22;11.32;;;10.20;;
11496;SDS011;5805;51.542;7.230;2023-05-07T05:06:48;10.80;;;9.63;;
11496;SDS011;5805;51.542;7.230;2023-05-07T05:09:13;10.23;;;9.20;;
11496;SDS011;5805;51.542;7.230;2023-05-07T05:11:39;9.88;;;8.55;;
11496;SDS011;5805;51.542;7.230;2023-05-07T05:14:05;8.73;;;7.93;;
11496;SDS011;5805;51.542;7.230;2023-05-07T05:16:30;10.75;;;8.15;;
11496;SDS011;5805;51.542;7.230;2023-05-07T05:18:56;8.60;;;7.75;;
11496;SDS011;5805;51.542;7.230;2023-05-07T05:21:23;7.28;;;6.57;;
11496;SDS011;5805;51.542;7.230;2023-05-07T05:23:49;8.65;;;6.88;;
11496;SDS011;5805;51.542;7.230;2023-05-07T05:26:15;6.95;;;6.25;;
11496;SDS011;5805;51.542;7.230;2023-05-07T05:28:40;6.55;;;5.93;;
11496;SDS011;5805;51.542;7.230;2023-05-07T05:31:06;7.00;;;5.85;;
11496;SDS011;5805;51.542;7.230;2023-05-07T05:33:32;8.02;;;5.68;;
11496;SDS011;5805;51.542;7.230;2023-05-07T05:35:57;7.75;;;5.50;;
11496;SDS011;5805;51.542;7.230;2023-05-07T05:38:25;6.45;;;5.60;;
11496;SDS011;5805;51.542;7.230;2023-05-07T05:40:50;7.80;;;5.45;;
11496;SDS011;5805;51.542;7.230;2023-05-07T05:43:16;5.15;;;4.53;;
11496;SDS011;5805;51.542;7.230;2023-05-07T05:45:42;6.35;;;5.53;;
11496;SDS011;5805;51.542;7.230;2023-05-07T05:48:07;5.70;;;5.20;;
11496;SDS011;5805;51.542;7.230;2023-05-07T05:50:33;6.68;;;5.18;;
11496;SDS011;5805;51.542;7.230;2023-05-07T05:52:59;5.50;;;5.10;;
11496;SDS011;5805;51.542;7.230;2023-05-07T05:55:26;5.53;;;4.75;;
11496;SDS011;5805;51.542;7.230;2023-05-07T05:57:52;5.75;;;5.13;;
11496;SDS011;5805;51.542;7.230;2023-05-07T06:00:17;5.57;;;4.80;;
11496;SDS011;5805;51.542;7.230;2023-05-07T06:02:43;4.68;;;4.28;;
11496;SDS011;5805;51.542;7.230;2023-05-07T06:05:09;5.13;;;4.47;;
11496;SDS011;5805;51.542;7.230;2023-05-07T06:07:35;7.07;;;4.35;;
11496;SDS011;5805;51.542;7.230;2023-05-07T06:10:00;4.15;;;3.85;;
11496;SDS011;5805;51.542;7.230;2023-05-07T06:12:28;7.28;;;4.30;;
11496;SDS011;5805;51.542;7.230;2023-05-07T06:14:53;6.60;;;3.78;;
11496;SDS011;5805;51.542;7.230;2023-05-07T06:17:19;3.90;;;3.60;;
11496;SDS011;5805;51.542;7.230;2023-05-07T06:19:45;5.35;;;3.90;;
11496;SDS011;5805;51.542;7.230;2023-05-07T06:22:10;4.45;;;3.70;;
11496;SDS011;5805;51.542;7.230;2023-05-07T06:24:36;3.53;;;3.17;;
11496;SDS011;5805;51.542;7.230;2023-05-07T06:27:02;5.15;;;3.78;;
11496;SDS011;5805;51.542;7.230;2023-05-07T06:29:29;4.90;;;3.75;;
11496;SDS011;5805;51.542;7.230;2023-05-07T06:31:55;4.30;;;3.78;;
11496;SDS011;5805;51.542;7.230;2023-05-07T06:34:21;3.80;;;3.40;;
11496;SDS011;5805;51.542;7.230;2023-05-07T06:36:46;4.38;;;3.53;;
11496;SDS011;5805;51.542;7.230;2023-05-07T06:39:12;3.33;;;3.10;;
11496;SDS011;5805;51.542;7.230;2023-05-07T06:41:38;6.75;;;3.10;;
11496;SDS011;5805;51.542;7.230;2023-05-07T06:44:04;5.97;;;3.65;;
11496;SDS011;5805;51.542;7.230;2023-05-07T06:46:31;4.32;;;3.33;;
11496;SDS011;5805;51.542;7.230;2023-05-07T06:48:57;4.63;;;3.53;;
11496;SDS011;5805;51.542;7.230;2023-05-07T06:51:22;3.90;;;3.42;;
11496;SDS011;5805;51.542;7.230;2023-05-07T06:53:48;3.50;;;3.20;;
11496;SDS011;5805;51.542;7.230;2023-05-07T06:56:14;4.28;;;3.88;;
11496;SDS011;5805;51.542;7.230;2023-05-07T06:58:39;5.13;;;3.30;;
11496;SDS011;5805;51.542;7.230;2023-05-07T07:01:05;5.53;;;3.92;;
11496;SDS011;5805;51.542;7.230;2023-05-07T07:03:32;4.05;;;3.53;;
11496;SDS011;5805;51.542;7.230;2023-05-07T07:05:58;4.15;;;3.53;;
11496;SDS011;5805;51.542;7.230;2023-05-07T07:08:23;3.80;;;3.40;;
11496;SDS011;5805;51.542;7.230;2023-05-07T07:10:49;3.50;;;3.20;;
11496;SDS011;5805;51.542;7.230;2023-05-07T07:13:15;4.35;;;3.83;;
11496;SDS011;5805;51.542;7.230;2023-05-07T07:15:40;5.63;;;3.88;;
11496;SDS011;5805;51.542;7.230;2023-05-07T07:18:06;4.53;;;3.78;;
11496;SDS011;5805;51.542;7.230;2023-05-07T07:20:33;4.07;;;3.72;;
11496;SDS011;5805;51.542;7.230;2023-05-07T07:22:59;7.80;;;4.10;;
11496;SDS011;5805;51.542;7.230;2023-05-07T07:25:25;5.32;;;3.97;;
11496;SDS011;5805;51.542;7.230;2023-05-07T07:27:51;4.70;;;4.15;;
11496;SDS011;5805;51.542;7.230;2023-05-07T07:30:16;4.30;;;3.58;;
11496;SDS011;5805;51.542;7.230;2023-05-07T07:32:42;4.00;;;3.55;;
11496;SDS011;5805;51.542;7.230;2023-05-07T07:35:08;3.78;;;3.40;;
11496;SDS011;5805;51.542;7.230;2023-05-07T07:37:35;4.18;;;3.45;;
11496;SDS011;5805;51.542;7.230;2023-05-07T07:40:01;8.20;;;4.28;;
11496;SDS011;5805;51.542;7.230;2023-05-07T07:42:27;7.45;;;3.97;;
11496;SDS011;5805;51.542;7.230;2023-05-07T07:44:53;5.68;;;3.88;;
11496;SDS011;5805;51.542;7.230;2023-05-07T07:47:18;5.32;;;3.40;;
11496;SDS011;5805;51.542;7.230;2023-05-07T07:49:44;4.28;;;3.53;;
11496;SDS011;5805;51.542;7.230;2023-05-07T07:52:10;4.53;;;3.72;;
11496;SDS011;5805;51.542;7.230;2023-05-07T07:54:37;4.20;;;3.80;;
11496;SDS011;5805;51.542;7.230;2023-05-07T07:57:02;6.28;;;4.00;;
11496;SDS011;5805;51.542;7.230;2023-05-07T07:59:28;4.97;;;3.50;;
11496;SDS011;5805;51.542;7.230;2023-05-07T08:01:54;3.83;;;3.53;;
11496;SDS011;5805;51.542;7.230;2023-05-07T08:04:19;4.75;;;3.78;;
11496;SDS011;5805;51.542;7.230;2023-05-07T08:06:45;4.40;;;3.83;;
11496;SDS011;5805;51.542;7.230;2023-05-07T08:09:11;5.15;;;3.60;;
11496;SDS011;5805;51.542;7.230;2023-05-07T08:11:38;5.18;;;4.10;;
11496;SDS011;5805;51.542;7.230;2023-05-07T08:14:04;6.22;;;4.15;;
11496;SDS011;5805;51.542;7.230;2023-05-07T08:16:30;4.82;;;3.80;;
11496;SDS011;5805;51.542;7.230;2023-05-07T08:18:55;4.47;;;4.00;;
11496;SDS011;5805;51.542;7.230;2023-05-07T08:21:21;5.80;;;4.10;;
11496;SDS011;5805;51.542;7.230;2023-05-07T08:23:47;5.03;;;4.53;;
11496;SDS011;5805;51.542;7.230;2023-05-07T08:26:13;5.75;;;5.07;;
11496;SDS011;5805;51.542;7.230;2023-05-07T08:28:40;5.28;;;4.82;;
11496;SDS011;5805;51.542;7.230;2023-05-07T08:31:06;4.47;;;4.07;;
11496;SDS011;5805;51.542;7.230;2023-05-07T08:33:31;5.38;;;4.47;;
11496;SDS011;5805;51.542;7.230;2023-05-07T08:35:57;5.45;;;4.60;;
11496;SDS011;5805;51.542;7.230;2023-05-07T08:38:23;5.95;;;4.35;;
11496;SDS011;5805;51.542;7.230;2023-05-07T08:40:48;5.13;;;4.63;;
11496;SDS011;5805;51.542;7.230;2023-05-07T08:43:14;7.57;;;4.65;;
11496;SDS011;5805;51.542;7.230;2023-05-07T08:45:41;6.07;;;5.25;;
11496;SDS011;5805;51.542;7.230;2023-05-07T08:48:14;5.50;;;5.00;;
11496;SDS011;5805;51.542;7.230;2023-05-07T08:50:40;6.90;;;5.22;;
11496;SDS011;5805;51.542;7.230;2023-05-07T08:53:06;5.75;;;5.00;;
11496;SDS011;5805;51.542;7.230;2023-05-07T08:55:32;8.02;;;5.43;;
11496;SDS011;5805;51.542;7.230;2023-05-07T08:57:58;5.32;;;4.72;;
11496;SDS011;5805;51.542;7.230;2023-05-07T09:00:23;5.70;;;4.80;;
11496;SDS011;5805;51.542;7.230;2023-05-07T09:02:51;6.75;;;4.30;;
11496;SDS011;5805;51.542;7.230;2023-05-07T09:05:17;7.43;;;4.72;;
11496;SDS011;5805;51.542;7.230;2023-05-07T09:07:43;9.25;;;5.07;;
11496;SDS011;5805;51.542;7.230;2023-05-07T09:10:09;5.45;;;4.95;;
11496;SDS011;5805;51.542;7.230;2023-05-07T09:12:34;5.10;;;4.50;;
11496;SDS011;5805;51.542;7.230;2023-05-07T09:15:00;5.72;;;4.72;;
11496;SDS011;5805;51.542;7.230;2023-05-07T09:17:26;7.15;;;5.15;;
11496;SDS011;5805;51.542;7.230;2023-05-07T09:19:54;6.15;;;5.55;;
11496;SDS011;5805;51.542;7.230;2023-05-07T09:22:19;6.95;;;5.90;;
11496;SDS011;5805;51.542;7.230;2023-05-07T09:24:47;6.18;;;5.57;;
11496;SDS011;5805;51.542;7.230;2023-05-07T09:27:13;5.57;;;5.07;;
11496;SDS011;5805;51.542;7.230;2023-05-07T09:29:39;6.00;;;5.32;;
11496;SDS011;5805;51.542;7.230;2023-05-07T09:32:05;7.43;;;5.95;;
11496;SDS011;5805;51.542;7.230;2023-05-07T09:34:31;6.53;;;5.93;;
11496;SDS011;5805;51.542;7.230;2023-05-07T09:36:59;6.82;;;5.70;;
11496;SDS011;5805;51.542;7.230;2023-05-07T09:39:31;6.15;;;5.57;;
11496;SDS011;5805;51.542;7.230;2023-05-07T09:42:04;6.82;;;5.28;;
11496;SDS011;5805;51.542;7.230;2023-05-07T09:44:31;7.45;;;5.18;;
11496;SDS011;5805;51.542;7.230;2023-05-07T09:46:57;6.03;;;4.80;;
11496;SDS011;5805;51.542;7.230;2023-05-07T09:49:25;5.32;;;4.72;;
11496;SDS011;5805;51.542;7.230;2023-05-07T09:51:54;5.80;;;5.10;;
11496;SDS011;5805;51.542;7.230;2023-05-07T09:54:22;7.28;;;5.00;;
11496;SDS011;5805;51.542;7.230;2023-05-07T09:56:48;7.43;;;4.63;;
11496;SDS011;5805;51.542;7.230;2023-05-07T09:59:14;4.55;;;4.07;;
11496;SDS011;5805;51.542;7.230;2023-05-07T10:01:41;5.15;;;4.55;;
11496;SDS011;5805;51.542;7.230;2023-05-07T10:04:08;4.75;;;4.32;;
11496;SDS011;5805;51.542;7.230;2023-05-07T10:06:35;4.85;;;4.15;;
11496;SDS011;5805;51.542;7.230;2023-05-07T10:09:01;4.90;;;4.50;;
11496;SDS011;5805;51.542;7.230;2023-05-07T10:11:29;4.25;;;3.78;;
11496;SDS011;5805;51.542;7.230;2023-05-07T10:13:55;4.45;;;4.05;;
11496;SDS011;5805;51.542;7.230;2023-05-07T10:16:21;4.93;;;4.40;;
11496;SDS011;5805;51.542;7.230;2023-05-07T10:18:49;5.18;;;4.68;;
11496;SDS011;5805;51.542;7.230;2023-05-07T10:21:16;5.85;;;4.57;;
11496;SDS011;5805;51.542;7.230;2023-05-07T10:23:44;6.03;;;4.60;;
11496;SDS011;5805;51.542;7.230;2023-05-07T10:26:10;5.88;;;4.47;;
11496;SDS011;5805;51.542;7.230;2023-05-07T10:28:40;5.85;;;5.25;;
11496;SDS011;5805;51.542;7.230;2023-05-07T10:31:14;6.80;;;3.85;;
11496;SDS011;5805;51.542;7.230;2023-05-07T10:33:48;4.78;;;4.15;;
11496;SDS011;5805;51.542;7.230;2023-05-07T10:36:16;5.07;;;3.80;;
11496;SDS011;5805;51.542;7.230;2023-05-07T10:38:43;5.13;;;4.63;;
11496;SDS011;5805;51.542;7.230;2023-05-07T10:41:09;5.25;;;4.53;;
11496;SDS011;5805;51.542;7.230;2023-05-07T10:43:40;5.22;;;4.60;;
11496;SDS011;5805;51.542;7.230;2023-05-07T10:46:10;5.80;;;4.22;;
11496;SDS011;5805;51.542;7.230;2023-05-07T10:51:32;4.95;;;4.45;;
11496;SDS011;5805;51.542;7.230;2023-05-07T10:56:46;6.22;;;3.65;;
11496;SDS011;5805;51.542;7.230;2023-05-07T11:01:59;5.85;;;5.10;;
11496;SDS011;5805;51.542;7.230;2023-05-07T11:04:25;3.70;;;3.40;;
11496;SDS011;5805;51.542;7.230;2023-05-07T11:10:02;7.47;;;5.00;;
11496;SDS011;5805;51.542;7.230;2023-05-07T11:18:15;5.05;;;3.88;;
11496;SDS011;5805;51.542;7.230;2023-05-07T11:20:49;5.72;;;4.97;;
11496;SDS011;5805;51.542;7.230;2023-05-07T11:26:20;9.00;;;5.47;;
11496;SDS011;5805;51.542;7.230;2023-05-07T11:28:46;5.88;;;4.93;;
11496;SDS011;5805;51.542;7.230;2023-05-07T11:31:14;7.30;;;5.55;;
11496;SDS011;5805;51.542;7.230;2023-05-07T11:33:46;6.95;;;5.00;;
11496;SDS011;5805;51.542;7.230;2023-05-07T11:36:13;6.60;;;4.90;;
11496;SDS011;5805;51.542;7.230;2023-05-07T11:38:40;7.90;;;5.78;;
11496;SDS011;5805;51.542;7.230;2023-05-07T11:41:06;8.55;;;6.10;;
11496;SDS011;5805;51.542;7.230;2023-05-07T11:43:33;6.95;;;5.43;;
11496;SDS011;5805;51.542;7.230;2023-05-07T11:46:04;6.68;;;5.45;;
11496;SDS011;5805;51.542;7.230;2023-05-07T11:48:32;6.60;;;5.25;;
11496;SDS011;5805;51.542;7.230;2023-05-07T11:51:00;5.90;;;4.95;;
11496;SDS011;5805;51.542;7.230;2023-05-07T11:53:26;4.75;;;4.18;;
11496;SDS011;5805;51.542;7.230;2023-05-07T11:55:52;4.80;;;4.40;;
11496;SDS011;5805;51.542;7.230;2023-05-07T11:58:20;6.90;;;5.32;;
11496;SDS011;5805;51.542;7.230;2023-05-07T12:00:50;6.22;;;5.63;;
11496;SDS011;5805;51.542;7.230;2023-05-07T12:03:17;6.95;;;6.20;;
11496;SDS011;5805;51.542;7.230;2023-05-07T12:05:44;6.18;;;5.40;;
11496;SDS011;5805;51.542;7.230;2023-05-07T12:08:13;5.55;;;4.97;;
11496;SDS011;5805;51.542;7.230;2023-05-07T12:10:40;5.63;;;5.03;;
11496;SDS011;5805;51.542;7.230;2023-05-07T12:13:13;6.63;;;5.75;;
11496;SDS011;5805;51.542;7.230;2023-05-07T12:15:39;6.03;;;5.40;;
11496;SDS011;5805;51.542;7.230;2023-05-07T12:18:05;7.95;;;5.40;;
11496;SDS011;5805;51.542;7.230;2023-05-07T12:20:32;5.88;;;5.28;;
11496;SDS011;5805;51.542;7.230;2023-05-07T12:23:00;5.45;;;4.95;;
11496;SDS011;5805;51.542;7.230;2023-05-07T12:25:26;5.05;;;4.55;;
11496;SDS011;5805;51.542;7.230;2023-05-07T12:27:54;6.10;;;5.47;;
11496;SDS011;5805;51.542;7.230;2023-05-07T12:30:20;5.70;;;5.03;;
11496;SDS011;5805;51.542;7.230;2023-05-07T12:32:46;6.15;;;5.07;;
11496;SDS011;5805;51.542;7.230;2023-05-07T12:35:12;5.75;;;4.30;;
11496;SDS011;5805;51.542;7.230;2023-05-07T12:37:37;7.30;;;3.97;;
11496;SDS011;5805;51.542;7.230;2023-05-07T12:40:05;5.82;;;3.78;;
11496;SDS011;5805;51.542;7.230;2023-05-07T12:42:32;4.32;;;3.67;;
11496;SDS011;5805;51.542;7.230;2023-05-07T12:45:00;5.00;;;4.50;;
11496;SDS011;5805;51.542;7.230;2023-05-07T12:47:32;5.05;;;4.55;;
11496;SDS011;5805;51.542;7.230;2023-05-07T12:49:58;5.97;;;4.10;;
11496;SDS011;5805;51.542;7.230;2023-05-07T12:52:24;4.03;;;3.60;;
11496;SDS011;5805;51.542;7.230;2023-05-07T12:54:50;3.70;;;3.10;;
11496;SDS011;5805;51.542;7.230;2023-05-07T12:57:19;3.50;;;3.15;;
11496;SDS011;5805;51.542;7.230;2023-05-07T12:59:45;7.07;;;3.60;;
11496;SDS011;5805;51.542;7.230;2023-05-07T13:02:10;3.95;;;3.08;;
11496;SDS011;5805;51.542;7.230;2023-05-07T13:04:36;8.13;;;3.45;;
11496;SDS011;5805;51.542;7.230;2023-05-07T13:07:02;4.45;;;3.17;;
11496;SDS011;5805;51.542;7.230;2023-05-07T13:09:28;3.70;;;3.05;;
11496;SDS011;5805;51.542;7.230;2023-05-07T13:11:53;3.40;;;2.80;;
11496;SDS011;5805;51.542;7.230;2023-05-07T13:14:21;2.83;;;2.50;;
11496;SDS011;5805;51.542;7.230;2023-05-07T13:16:46;2.90;;;2.47;;
11496;SDS011;5805;51.542;7.230;2023-05-07T13:19:12;2.97;;;2.60;;
11496;SDS011;5805;51.542;7.230;2023-05-07T13:21:38;3.67;;;2.92;;
11496;SDS011;5805;51.542;7.230;2023-05-07T13:24:04;3.35;;;3.05;;
11496;SDS011;5805;51.542;7.230;2023-05-07T13:26:30;4.63;;;3.13;;
11496;SDS011;5805;51.542;7.230;2023-05-07T13:28:56;3.38;;;3.08;;
11496;SDS011;5805;51.542;7.230;2023-05-07T13:31:23;5.50;;;3.72;;
11496;SDS011;5805;51.542;7.230;2023-05-07T13:33:49;3.50;;;3.15;;
11496;SDS011;5805;51.542;7.230;2023-05-07T13:36:15;6.10;;;3.30;;
11496;SDS011;5805;51.542;7.230;2023-05-07T13:38:41;5.13;;;3.10;;
11496;SDS011;5805;51.542;7.230;2023-05-07T13:41:06;3.60;;;3.30;;
11496;SDS011;5805;51.542;7.230;2023-05-07T13:43:32;4.13;;;3.55;;
11496;SDS011;5805;51.542;7.230;2023-05-07T13:45:58;4.25;;;3.78;;
11496;SDS011;5805;51.542;7.230;2023-05-07T13:48:25;5.00;;;3.95;;
11496;SDS011;5805;51.542;7.230;2023-05-07T13:50:50;6.15;;;4.53;;
11496;SDS011;5805;51.542;7.230;2023-05-07T13:53:16;4.45;;;3.83;;
11496;SDS011;5805;51.542;7.230;2023-05-07T13:55:42;5.43;;;4.28;;
11496;SDS011;5805;51.542;7.230;2023-05-07T13:58:08;4.65;;;4.25;;
11496;SDS011;5805;51.542;7.230;2023-05-07T14:00:33;3.80;;;3.50;;
11496;SDS011;5805;51.542;7.230;2023-05-07T14:02:59;3.20;;;2.90;;
11496;SDS011;5805;51.542;7.230;2023-05-07T14:05:26;3.70;;;3.20;;
11496;SDS011;5805;51.542;7.230;2023-05-07T14:07:52;5.07;;;3.30;;
11496;SDS011;5805;51.542;7.230;2023-05-07T14:10:18;4.50;;;3.33;;
11496;SDS011;5805;51.542;7.230;2023-05-07T14:12:44;4.97;;;4.03;;
11496;SDS011;5805;51.542;7.230;2023-05-07T14:15:10;7.35;;;3.90;;
11496;SDS011;5805;51.542;7.230;2023-05-07T14:17:36;4.35;;;3.10;;
11496;SDS011;5805;51.542;7.230;2023-05-07T14:20:02;5.38;;;3.97;;
11496;SDS011;5805;51.542;7.230;2023-05-07T14:22:30;4.93;;;4.05;;
11496;SDS011;5805;51.542;7.230;2023-05-07T14:24:55;4.60;;;4.15;;
11496;SDS011;5805;51.542;7.230;2023-05-07T14:27:21;5.78;;;4.72;;
11496;SDS011;5805;51.542;7.230;2023-05-07T14:29:47;4.70;;;4.30;;
11496;SDS011;5805;51.542;7.230;2023-05-07T14:32:13;4.65;;;4.22;;
11496;SDS011;5805;51.542;7.230;2023-05-07T14:34:38;5.55;;;4.38;;
11496;SDS011;5805;51.542;7.230;2023-05-07T14:37:04;5.30;;;4.80;;
11496;SDS011;5805;51.542;7.230;2023-05-07T14:39:31;7.03;;;5.03;;
11496;SDS011;5805;51.542;7.230;2023-05-07T14:41:57;5.55;;;4.82;;
11496;SDS011;5805;51.542;7.230;2023-05-07T14:44:23;7.18;;;5.00;;
11496;SDS011;5805;51.542;7.230;2023-05-07T14:46:48;5.60;;;5.07;;
11496;SDS011;5805;51.542;7.230;2023-05-07T14:49:14;6.43;;;4.75;;
11496;SDS011;5805;51.542;7.230;2023-05-07T14:51:40;6.00;;;4.85;;
11496;SDS011;5805;51.542;7.230;2023-05-07T14:54:05;5.70;;;5.20;;
11496;SDS011;5805;51.542;7.230;2023-05-07T14:56:32;7.50;;;5.70;;
11496;SDS011;5805;51.542;7.230;2023-05-07T14:58:59;8.50;;;5.00;;
11496;SDS011;5805;51.542;7.230;2023-05-07T15:01:25;6.32;;;4.95;;
11496;SDS011;5805;51.542;7.230;2023-05-07T15:03:51;5.32;;;4.32;;
11496;SDS011;5805;51.542;7.230;2023-05-07T15:06:16;10.13;;;4.85;;
11496;SDS011;5805;51.542;7.230;2023-05-07T15:08:42;5.13;;;4.40;;